Latest Weather Observations for Badgerys Creek

IDN60901

Issued at 11:41 am EST Wednesday 27 July 2016 (issued every 10 minutes, with the page automatically refreshed every 10 minutes)

About weather observations | Map of Sydney area stations | Latest observations for Sydney area | Other Formats
Station Details ID: 067108 Name: BADGERYS CREEK AWS Lat: -33.90 Lon: 150.73 Height: 81.2 m
Data from the previous 72 hours. | See also: Recent months at Badgerys Creek
Date/Time
EST
Temp
°C
App
Temp
°C
Dew
Point
°C
Rel
Hum
%
Delta-T
°C
Wind Press
QNH
hPa
Press
MSL
hPa
Rain since
9am
mm
Dir  Spd
km/h
Gust
km/h
Spd
kts
Gust
kts
27/11:30am 17.0 9.9 5.3 46 5.6 WNW 32 43 17 23 1012.8 1012.9 0.0
27/11:00am 16.4 10.4 5.4 48 5.3 WNW 26 35 14 19 1012.5 1012.6 0.0
27/10:30am 15.9 9.7 6.1 52 4.8 W 28 37 15 20 1012.6 1012.7 0.0
27/10:00am 15.7 9.1 6.2 53 4.6 WNW 30 43 16 23 1012.4 1012.5 0.0
27/09:30am 15.8 8.9 6.5 54 4.6 NW 32 46 17 25 1012.2 1012.3 0.0
27/09:20am 15.4 10.4 6.4 55 4.4 NNW 22 43 12 23 1012.1 1012.2 0.0
27/09:00am 15.1 11.4 6.4 56 4.2 N 15 20 8 11 1012.2 1012.3 0.0
27/08:30am 13.3 10.3 6.2 62 3.4 N 11 19 6 10 1012.3 1012.4 0.0
27/08:00am 11.9 8.9 5.8 66 2.9 N 11 13 6 7 1012.2 1012.3 0.0
27/07:30am 10.1 7.7 5.1 71 2.3 NE 7 9 4 5 1012.1 1012.2 0.0
27/07:00am 9.2 6.7 4.6 73 2.1 NE 7 9 4 5 1012.1 1012.2 0.0
27/06:30am 9.6 7.0 4.4 70 2.3 NNE 7 13 4 7 1011.9 1012.0 0.0
27/06:00am 9.3 6.0 4.5 72 2.1 N 11 15 6 8 1011.8 1011.9 0.0
27/05:30am 8.6 5.2 3.8 72 2.1 N 11 17 6 9 1011.7 1011.8 0.0
27/05:00am 9.4 6.0 4.2 70 2.3 N 11 19 6 10 1011.9 1012.0 0.0
27/04:30am 9.3 5.6 4.3 71 2.2 N 13 20 7 11 1012.2 1012.3 0.0
27/04:00am 9.1 6.8 4.7 74 2.0 SSW 6 9 3 5 1012.2 1012.3 0.0
27/03:30am 7.4 5.7 3.8 78 1.5 E 2 4 1 2 1012.2 1012.3 0.0
27/03:00am 7.5 5.3 3.2 74 1.8 N 4 9 2 5 1012.3 1012.4 0.0
27/02:30am 9.8 7.3 4.0 67 2.6 N 6 11 3 6 1012.4 1012.5 0.0
27/02:00am 11.2 6.7 4.2 62 3.1 WNW 17 24 9 13 1013.1 1013.2 0.0
27/01:30am 9.3 6.0 4.5 72 2.1 NW 11 20 6 11 1013.7 1013.8 0.0
27/01:00am 11.3 9.0 4.7 64 3.0 NNW 6 7 3 4 1013.5 1013.6 0.0
27/12:30am 11.6 9.1 4.8 63 3.1 N 7 9 4 5 1013.6 1013.7 0.0
27/12:00am 11.1 7.9 5.2 67 2.7 NNW 11 13 6 7 1013.9 1014.0 0.0
 
Date/Time
EST
Temp
°C
App
Temp
°C
Dew
Point
°C
Rel
Hum
%
Delta-T
°C
Wind Press
QNH
hPa
Press
MSL
hPa
Rain since
9am
mm
Dir  Spd
km/h
Gust
km/h
Spd
kts
Gust
kts
26/11:30pm 11.3 7.7 5.2 66 2.8 NNW 13 17 7 9 1013.9 1014.0 0.0
26/11:00pm 9.8 6.6 5.2 73 2.1 N 11 13 6 7 1014.2 1014.3 0.0
26/10:30pm 8.5 6.3 3.4 70 2.2 ENE 4 7 2 4 1014.3 1014.4 0.0
26/10:00pm 8.1 5.8 3.0 70 2.2 ENE 4 6 2 3 1014.4 1014.5 0.0
26/09:30pm 8.7 6.5 3.5 70 2.2 ENE 4 6 2 3 1014.3 1014.4 0.0
26/09:00pm 8.9 7.5 3.5 69 2.3 CALM 0 2 0 1 1014.4 1014.5 0.0
26/08:30pm 10.6 8.4 3.6 62 3.1 ENE 4 4 2 2 1014.5 1014.6 0.0
26/08:00pm 10.8 8.6 3.1 59 3.4 ENE 4 6 2 3 1014.6 1014.7 0.0
26/07:30pm 12.6 10.4 3.3 53 4.1 ENE 4 7 2 4 1014.5 1014.6 0.0
26/07:00pm 10.9 8.7 3.5 60 3.3 ESE 4 9 2 5 1014.4 1014.5 0.0
26/06:30pm 12.0 10.5 3.0 54 4.0 CALM 0 0 0 0 1014.1 1014.2 0.0
26/06:00pm 12.7 10.1 3.1 52 4.3 W 6 9 3 5 1013.9 1014.0 0.0
26/05:30pm 13.0 9.0 3.1 51 4.4 W 13 20 7 11 1013.7 1013.8 0.0
26/05:00pm 14.2 8.9 3.1 47 5.0 W 20 28 11 15 1013.4 1013.5 0.0
26/04:30pm 15.1 9.0 3.0 44 5.5 W 24 33 13 18 1013.2 1013.3 0.0
26/04:00pm 16.6 10.2 3.0 40 6.2 WNW 26 39 14 21 1013.0 1013.1 0.0
26/03:30pm 17.6 11.8 2.4 36 6.9 WNW 22 32 12 17 1013.0 1013.1 0.0
26/03:00pm 18.3 12.1 2.2 34 7.4 WNW 24 32 13 17 1012.9 1013.0 0.0
26/02:30pm 18.5 12.6 1.5 32 7.7 W 22 30 12 16 1012.6 1012.7 0.0
26/02:00pm 18.4 14.4 2.7 35 7.3 NW 13 28 7 15 1012.5 1012.6 0.0
26/01:30pm 18.4 15.9 3.8 38 6.9 WNW 6 15 3 8 1012.7 1012.8 0.0
26/01:00pm 17.3 15.0 4.6 43 6.0 SSW 6 9 3 5 1013.1 1013.2 0.0
26/12:30pm 17.1 14.8 4.8 44 5.9 SSE 6 11 3 6 1013.4 1013.5 0.0
26/12:00pm 17.0 15.0 6.2 49 5.3 SSW 6 9 3 5 1013.9 1014.0 0.0
26/11:30am 16.8 14.7 5.7 48 5.4 SE 6 11 3 6 1014.1 1014.2 0.0
26/11:00am 16.2 13.9 5.5 49 5.1 SSE 7 13 4 7 1014.4 1014.5 0.0
26/10:30am 15.8 13.4 5.4 50 5.0 SSE 7 11 4 6 1014.6 1014.7 0.0
26/10:00am 15.3 13.2 6.8 57 4.2 SSE 7 9 4 5 1014.7 1014.8 0.0
26/09:30am 14.0 11.9 5.9 58 3.9 SE 6 9 3 5 1014.5 1014.6 0.0
26/09:00am 13.4 11.5 6.5 63 3.3 S 6 9 3 5 1014.2 1014.3 0.0
26/08:30am 12.5 10.7 5.2 61 3.4 S 4 7 2 4 1013.9 1014.0 0.0
26/08:00am 13.2 10.5 5.6 60 3.6 NNW 9 13 5 7 1013.5 1013.6 0.0
26/07:30am 11.2 8.3 4.7 64 3.0 NNW 9 13 5 7 1013.3 1013.4 0.0
26/07:00am 10.9 8.2 3.9 62 3.1 N 7 9 4 5 1012.8 1012.9 0.0
26/06:30am 9.8 7.1 3.8 66 2.6 NE 7 7 4 4 1012.3 1012.4 0.0
26/06:00am 10.6 8.1 3.6 62 3.1 W 6 11 3 6 1012.1 1012.2 0.0
26/05:30am 11.6 7.7 3.6 58 3.6 NW 13 22 7 12 1011.9 1012.0 0.0
26/05:00am 12.1 7.5 3.9 57 3.7 NW 17 24 9 13 1011.5 1011.6 0.0
26/04:30am 11.5 8.0 3.3 57 3.6 NNW 11 20 6 11 1011.3 1011.4 0.0
26/04:00am 11.6 8.0 2.9 55 3.8 NW 11 19 6 10 1011.5 1011.6 0.0
26/03:30am 10.9 7.2 2.5 56 3.6 NNW 11 17 6 9 1011.5 1011.6 0.0
26/03:00am 11.2 8.3 2.5 55 3.8 NW 7 15 4 8 1011.8 1011.9 0.0
26/02:30am 11.4 7.8 2.7 55 3.8 NW 11 20 6 11 1012.0 1012.1 0.0
26/02:00am 11.5 7.8 2.5 54 3.9 NW 11 19 6 10 1012.1 1012.2 0.0
26/01:30am 11.8 7.4 2.5 53 4.0 NNW 15 24 8 13 1012.1 1012.2 0.0
26/01:00am 10.6 6.4 1.7 54 3.8 NNW 13 19 7 10 1012.0 1012.1 0.0
26/12:30am 10.3 6.6 2.2 57 3.5 N 11 15 6 8 1011.9 1012.0 0.0
26/12:00am 10.4 7.0 2.0 56 3.6 NNW 9 13 5 7 1012.2 1012.3 0.0
 
Date/Time
EST
Temp
°C
App
Temp
°C
Dew
Point
°C
Rel
Hum
%
Delta-T
°C
Wind Press
QNH
hPa
Press
MSL
hPa
Rain since
9am
mm
Dir  Spd
km/h
Gust
km/h
Spd
kts
Gust
kts
25/11:30pm 10.3 6.2 2.4 58 3.4 NW 13 26 7 14 1012.7 1012.8 0.0
25/11:00pm 10.2 5.4 2.6 59 3.3 WNW 17 24 9 13 1013.0 1013.1 0.0
25/10:30pm 10.9 5.2 2.7 57 3.6 WNW 22 33 12 18 1013.1 1013.2 0.0
25/10:00pm 9.6 5.3 3.4 65 2.7 NW 15 22 8 12 1013.1 1013.2 0.0
25/09:30pm 8.3 4.7 3.2 70 2.2 WNW 11 17 6 9 1013.0 1013.1 0.0
25/09:00pm 8.9 6.1 3.1 67 2.5 NNW 7 17 4 9 1013.1 1013.2 0.0
25/08:30pm 9.5 5.6 3.5 66 2.6 N 13 19 7 10 1012.8 1012.9 0.0
25/08:00pm 9.7 5.5 3.7 66 2.6 NNW 15 22 8 12 1012.9 1013.0 0.0
25/07:30pm 8.7 4.8 3.5 70 2.2 NNW 13 15 7 8 1013.0 1013.1 0.0
25/07:00pm 9.0 5.4 3.2 67 2.5 N 11 13 6 7 1013.1 1013.2 0.0
25/06:30pm 10.8 6.9 3.6 61 3.2 NW 13 19 7 10 1012.8 1012.9 0.0
25/06:00pm 10.7 7.9 3.3 60 3.2 N 7 9 4 5 1012.9 1013.0 0.0
25/05:30pm 11.5 8.7 3.3 57 3.6 NW 7 9 4 5 1012.8 1012.9 0.0
25/05:00pm 13.1 8.0 3.2 51 4.4 WNW 19 24 10 13 1012.4 1012.5 0.0
25/04:30pm 14.4 9.3 3.2 47 5.1 WNW 19 24 10 13 1012.4 1012.5 0.0
25/04:00pm 14.8 8.0 3.0 45 5.3 WNW 28 44 15 24 1012.0 1012.1 0.0
25/03:59pm 14.8 8.0 3.0 45 5.3 WNW 28 44 15 24 1012.0 1012.1 0.0
25/03:30pm 15.9 11.3 3.7 44 5.6 WNW 17 24 9 13 1011.8 1011.9 0.0
25/03:00pm 16.1 11.0 2.9 41 6.0 W 19 30 10 16 1011.9 1012.0 0.0
25/02:30pm 16.3 10.6 3.0 41 6.1 WNW 22 37 12 20 1011.9 1012.0 0.0
25/02:00pm 16.3 11.0 3.0 41 6.1 WNW 20 30 11 16 1011.7 1011.8 0.0
25/01:30pm 16.6 10.9 3.0 40 6.2 WNW 22 32 12 17 1011.8 1011.9 0.0
25/01:00pm 16.7 11.3 2.3 38 6.5 W 20 32 11 17 1011.8 1011.9 0.0
25/12:30pm 16.1 13.2 2.5 40 6.1 WSW 7 11 4 6 1012.0 1012.1 0.0
25/12:00pm 15.9 13.5 2.3 40 6.1 NW 4 11 2 6 1012.3 1012.4 0.0
25/11:30am 15.2 11.5 2.4 42 5.7 WSW 11 19 6 10 1012.3 1012.4 0.0
25/11:00am 15.4 11.1 3.2 44 5.6 WSW 15 28 8 15 1012.5 1012.6 0.0
25/10:30am 14.4 9.0 2.6 45 5.3 W 20 39 11 21 1012.5 1012.6 0.0
25/10:00am 13.8 7.4 3.0 48 4.8 W 26 39 14 21 1012.5 1012.6 0.0
25/09:30am 13.5 8.5 3.6 51 4.5 W 19 24 10 13 1012.4 1012.5 0.0
25/09:00am 12.6 6.7 3.8 55 4.0 WNW 24 35 13 19 1012.1 1012.2 0.0
25/08:30am 11.9 7.8 4.2 59 3.5 WNW 15 24 8 13 1012.2 1012.3 0.0
25/08:00am 10.8 8.5 4.9 67 2.7 NNW 6 13 3 7 1012.0 1012.1 0.0
25/07:30am 9.7 6.1 3.0 63 2.9 WNW 11 19 6 10 1011.9 1012.0 0.0
25/07:00am 7.4 4.1 2.5 71 2.0 NNW 9 13 5 7 1011.6 1011.7 0.0
25/06:30am 6.9 4.1 3.2 77 1.6 NW 7 11 4 6 1011.2 1011.3 0.0
25/06:00am 2.3 -0.1 2.2 99 0.0 N 4 7 2 4 1011.0 1011.1 0.0
25/05:30am 1.4 -1.8 0.7 95 0.3 N 7 9 4 5 1010.8 1010.9 0.0
25/05:00am 4.0 0.7 2.5 90 0.6 WNW 9 19 5 10 1010.8 1010.9 0.0
25/04:30am 3.1 0.2 2.4 95 0.3 WNW 7 11 4 6 1010.6 1010.7 0.0
25/04:00am 3.0 0.6 2.1 94 0.4 WSW 4 4 2 2 1010.5 1010.6 0.0
25/03:30am 3.3 1.0 2.6 95 0.3 WSW 4 6 2 3 1010.4 1010.5 0.0
25/03:00am 3.5 0.8 2.6 94 0.4 WSW 6 9 3 5 1010.4 1010.5 0.0
25/02:30am 3.4 0.7 2.5 94 0.4 WSW 6 13 3 7 1010.7 1010.8 0.0
25/02:00am 4.5 2.6 2.7 88 0.7 NNE 2 4 1 2 1010.7 1010.8 0.0
25/01:30am 3.2 0.1 1.6 89 0.6 WNW 7 13 4 7 1010.9 1011.0 0.0
25/01:00am 3.5 0.6 1.7 88 0.7 N 6 9 3 5 1011.5 1011.6 0.0
25/12:30am 4.8 2.1 2.7 86 0.9 N 6 9 3 5 1011.6 1011.7 0.0
25/12:00am 5.6 2.8 1.9 77 1.5 N 6 7 3 4 1011.5 1011.6 0.0
 
Date/Time
EST
Temp
°C
App
Temp
°C
Dew
Point
°C
Rel
Hum
%
Delta-T
°C
Wind Press
QNH
hPa
Press
MSL
hPa
Rain since
9am
mm
Dir  Spd
km/h
Gust
km/h
Spd
kts
Gust
kts
24/11:30pm 5.5 3.1 2.2 79 1.3 N 4 6 2 3 1012.0 1012.1 0.0
24/11:00pm 5.8 1.3 2.3 78 1.4 N 15 19 8 10 1011.9 1012.0 0.0
24/10:30pm 6.3 1.8 2.0 74 1.8 N 15 19 8 10 1012.1 1012.2 0.0
24/10:00pm 6.2 2.4 1.9 74 1.7 N 11 15 6 8 1012.3 1012.4 0.0
24/09:30pm 6.8 2.7 2.1 72 1.9 NNW 13 19 7 10 1012.6 1012.7 0.0
24/09:00pm 7.3 3.5 2.0 69 2.2 NNW 11 15 6 8 1012.7 1012.8 0.0
24/08:30pm 6.7 3.6 1.2 68 2.2 NNE 7 11 4 6 1012.6 1012.7 0.0
24/08:00pm 8.4 4.6 1.8 63 2.7 N 11 17 6 9 1012.6 1012.7 0.0
24/07:30pm 8.7 4.5 1.6 61 2.9 NNW 13 17 7 9 1013.1 1013.2 0.0
24/07:00pm 9.3 5.2 2.4 62 2.9 NNW 13 17 7 9 1012.8 1012.9 0.0
24/06:30pm 8.6 4.1 2.4 65 2.6 NNW 15 19 8 10 1012.6 1012.7 0.0
24/06:00pm 8.4 4.6 1.6 62 2.8 N 11 13 6 7 1012.1 1012.2 0.0
24/05:30pm 10.3 7.0 0.3 50 4.1 WNW 7 7 4 4 1011.9 1012.0 0.0
24/05:00pm 11.3 8.0 0.1 46 4.6 WNW 7 7 4 4 1011.6 1011.7 0.0
24/04:30pm 12.9 9.8 0.0 41 5.4 WNW 6 7 3 4 1011.2 1011.3 0.0
24/04:00pm 13.5 10.2 -0.2 39 5.7 W 7 11 4 6 1011.6 1011.7 0.0
24/03:30pm 13.6 8.1 0.3 40 5.6 W 19 24 10 13 1011.9 1012.0 0.0
24/03:00pm 13.6 8.5 0.9 42 5.4 WSW 17 22 9 12 1012.2 1012.3 0.0
24/02:30pm 13.6 8.5 0.9 42 5.4 W 17 24 9 13 1012.1 1012.2 0.0
24/02:00pm 13.5 8.8 1.2 43 5.3 WNW 15 22 8 12 1012.5 1012.6 0.0
24/01:30pm 13.0 7.9 0.7 43 5.2 W 17 24 9 13 1013.1 1013.2 0.0
24/01:00pm 11.9 7.1 0.1 44 4.9 W 15 20 8 11 1013.5 1013.6 0.0
24/12:30pm 12.0 8.0 0.8 46 4.7 NW 11 17 6 9 1014.1 1014.2 0.0
24/12:00pm 10.7 7.3 2.0 55 3.7 N 9 13 5 7 1014.7 1014.8 0.0

Latest Capital City Observations: Canberra | Sydney | Melbourne | Brisbane | Adelaide | Perth | Hobart | Darwin

Other Formats:

Comma delimited format used in spreadsheet applications
http://www.bom.gov.au/fwo/IDN60901/IDN60901.94752.axf

JavaScript Object Notation format (JSON) in row-major order
http://www.bom.gov.au/fwo/IDN60901/IDN60901.94752.json